Time;durP1;ratioP1;P1;durP2;ratioP2;P2;SDS_P1;SDS_P2;PMS_P1;PMS_P2;Temp;Humidity;BMP_temperature;BMP_pressure;BME280_temperature;BME280_humidity;BME280_pressure;Samples;Min_cycle;Max_cycle;Signal;HPM_P1;HPM_P2
2024/02/04 00:01:42;;;;;;;8.15;0.55;;;;;;;3.77;56.43;101886.56;5064912;28;20150;-68
2024/02/04 00:04:07;;;;;;;13.65;0.75;;;;;;;3.99;56.00;101903.91;5061652;28;20040;-68
2024/02/04 00:06:33;;;;;;;11.82;1.45;;;;;;;4.06;55.64;101891.00;5067255;28;20138;-69
2024/02/04 00:08:59;;;;;;;6.97;0.65;;;;;;;3.94;56.05;101894.38;5046032;28;20043;-68
2024/02/04 00:11:24;;;;;;;7.47;0.73;;;;;;;4.46;54.01;101894.53;5065742;28;20040;-71
2024/02/04 00:13:50;;;;;;;8.85;0.77;;;;;;;4.02;55.06;101903.91;5070089;28;20032;-70
2024/02/04 00:16:15;;;;;;;5.95;0.75;;;;;;;4.06;54.96;101909.97;5061427;28;20130;-70
2024/02/04 00:18:41;;;;;;;5.57;1.25;;;;;;;3.94;54.95;101909.88;5068978;28;20153;-71
2024/02/04 00:21:06;;;;;;;8.00;0.80;;;;;;;4.31;53.61;101910.91;5061972;28;20071;-69
2024/02/04 00:23:32;;;;;;;5.70;0.75;;;;;;;4.60;52.96;101902.31;5068487;28;20048;-69
2024/02/04 00:25:57;;;;;;;10.48;0.95;;;;;;;4.51;52.99;101902.31;5069616;28;20044;-70
2024/02/04 00:28:23;;;;;;;13.30;1.13;;;;;;;4.52;52.62;101896.25;5054160;28;20028;-69
2024/02/04 00:30:49;;;;;;;2.28;0.30;;;;;;;4.01;53.23;101897.00;5051200;28;20398;-68
2024/02/04 00:33:16;;;;;;;6.22;0.52;;;;;;;4.16;53.34;101891.03;5060315;28;20171;-69
2024/02/04 00:35:42;;;;;;;5.07;0.45;;;;;;;4.74;51.87;101877.28;5069376;28;20062;-69
2024/02/04 00:38:08;;;;;;;11.48;0.98;;;;;;;4.28;52.55;101874.66;5059687;28;20406;-69
2024/02/04 00:40:34;;;;;;;5.55;0.73;;;;;;;4.34;52.70;101866.03;5066714;28;20112;-69
2024/02/04 00:43:00;;;;;;;8.07;0.75;;;;;;;4.36;52.83;101862.63;5067022;28;20600;-69
2024/02/04 00:45:25;;;;;;;9.02;0.50;;;;;;;4.29;52.93;101875.53;5038172;28;20080;-74
2024/02/04 00:47:51;;;;;;;2.95;0.30;;;;;;;4.11;53.63;101868.56;5045202;28;20041;-74
2024/02/04 00:50:17;;;;;;;9.35;0.98;;;;;;;3.93;54.20;101875.41;5056495;28;20039;-74
2024/02/04 00:52:42;;;;;;;4.22;0.32;;;;;;;3.73;54.66;101879.63;5067386;28;20082;-72
2024/02/04 00:55:08;;;;;;;2.17;1.23;;;;;;;3.87;54.80;101877.09;5059985;28;20047;-70
2024/02/04 00:57:34;;;;;;;6.07;0.60;;;;;;;3.96;54.87;101884.91;5063954;28;20039;-70
2024/02/04 00:59:59;;;;;;;10.55;0.70;;;;;;;3.61;55.97;101888.22;5047541;28;20036;-70
2024/02/04 01:02:25;;;;;;;13.82;2.10;;;;;;;3.29;57.69;101888.00;5044978;28;20082;-68
2024/02/04 01:04:51;;;;;;;9.88;0.88;;;;;;;3.40;57.09;101891.50;5063820;28;20082;-71
2024/02/04 01:07:17;;;;;;;5.97;0.73;;;;;;;3.17;58.08;101889.59;5044899;28;20510;-71
2024/02/04 01:09:42;;;;;;;12.65;2.08;;;;;;;3.38;57.67;101888.06;5055850;28;20071;-70
2024/02/04 01:12:08;;;;;;;11.85;0.93;;;;;;;3.33;58.08;101882.00;5027542;28;20520;-69
2024/02/04 01:14:34;;;;;;;12.40;2.53;;;;;;;3.24;58.52;101879.31;5065872;28;20028;-69
2024/02/04 01:17:00;;;;;;;10.32;0.82;;;;;;;3.13;58.85;101877.53;5066942;28;20036;-69
2024/02/04 01:19:26;;;;;;;12.32;0.73;;;;;;;2.97;60.19;101881.72;5061862;28;20391;-70
2024/02/04 01:21:51;;;;;;;8.32;1.10;;;;;;;3.07;59.80;101882.66;5065713;28;20736;-69
2024/02/04 01:24:16;;;;;;;2.92;1.05;;;;;;;3.47;58.34;101872.63;5061798;28;20032;-73
2024/02/04 01:26:42;;;;;;;11.98;1.35;;;;;;;3.17;59.46;101878.41;5067461;28;20403;-71
2024/02/04 01:29:08;;;;;;;7.10;1.30;;;;;;;3.16;59.40;101877.56;5065738;28;20040;-71
2024/02/04 01:31:33;;;;;;;6.55;1.83;;;;;;;2.74;61.58;101873.78;5063270;28;20451;-71
2024/02/04 01:33:59;;;;;;;7.53;1.42;;;;;;;3.13;60.17;101877.53;5067819;28;20058;-71
2024/02/04 01:36:24;;;;;;;4.28;1.00;;;;;;;3.18;60.28;101875.84;5059152;28;20047;-67
2024/02/04 01:38:50;;;;;;;7.93;1.52;;;;;;;3.25;60.28;101875.88;5049814;28;20055;-67
2024/02/04 01:41:16;;;;;;;17.42;1.83;;;;;;;3.06;61.24;101867.16;5059435;28;20284;-67
2024/02/04 01:43:41;;;;;;;10.85;0.90;;;;;;;2.86;61.72;101861.81;5067047;28;20439;-65
2024/02/04 01:46:08;;;;;;;8.52;1.48;;;;;;;2.90;61.74;101858.41;5066077;28;20036;-66
2024/02/04 01:48:34;;;;;;;13.63;1.88;;;;;;;2.96;61.70;101866.22;5063316;28;20025;-66
2024/02/04 01:51:01;;;;;;;6.95;1.13;;;;;;;3.10;60.71;101861.16;5067640;28;20036;-66
2024/02/04 01:53:29;;;;;;;5.88;1.45;;;;;;;2.92;62.25;101848.97;5059033;28;20032;-67
2024/02/04 01:55:55;;;;;;;7.65;1.63;;;;;;;2.96;61.50;101848.16;5066202;28;20520;-66
2024/02/04 01:58:22;;;;;;;13.10;1.85;;;;;;;2.53;62.99;101843.50;5057749;28;20100;-67
2024/02/04 02:00:49;;;;;;;12.32;1.90;;;;;;;2.58;63.09;101838.38;5060548;28;20048;-67
2024/02/04 02:03:16;;;;;;;9.32;1.48;;;;;;;2.47;63.08;101850.31;5058378;28;20752;-67
2024/02/04 02:05:41;;;;;;;10.82;1.70;;;;;;;2.57;62.39;101836.63;5067157;28;20047;-67
2024/02/04 02:08:09;;;;;;;9.30;1.92;;;;;;;2.91;61.66;101832.63;5065353;28;20047;-67
2024/02/04 02:10:35;;;;;;;11.25;0.93;;;;;;;2.79;61.31;101829.06;5061752;28;20040;-65
2024/02/04 02:13:13;;;;;;;11.40;3.83;;;;;;;2.92;61.29;101831.75;5064343;28;20756;-66
2024/02/04 02:15:54;;;;;;;15.50;2.00;;;;;;;2.81;61.93;101840.28;5066468;28;20063;-66
2024/02/04 02:18:42;;;;;;;14.25;1.60;;;;;;;2.49;62.52;101826.25;5056218;28;20055;-66
2024/02/04 02:21:37;;;;;;;11.90;2.42;;;;;;;2.75;61.88;101829.03;5067557;28;20628;-66
2024/02/04 02:24:23;;;;;;;7.90;1.02;;;;;;;2.54;62.22;101814.25;5064897;28;20047;-66
2024/02/04 02:26:53;;;;;;;10.30;1.77;;;;;;;2.18;63.67;101808.75;5065379;28;20047;-65
2024/02/04 02:29:19;;;;;;;15.60;1.85;;;;;;;2.22;63.61;101811.38;5061276;28;20062;-65
2024/02/04 02:31:46;;;;;;;8.77;1.33;;;;;;;2.24;63.11;101799.38;5055323;28;20101;-64
2024/02/04 02:34:12;;;;;;;7.32;1.45;;;;;;;2.49;62.22;101802.16;5041321;28;20024;-66
2024/02/04 02:36:47;;;;;;;10.07;1.33;;;;;;;2.45;62.12;101801.25;5054395;28;20431;-74
2024/02/04 02:39:24;;;;;;;8.07;1.77;;;;;;;2.39;62.51;101796.03;5067602;28;20040;-73
2024/02/04 02:41:53;;;;;;;10.88;1.27;;;;;;;2.31;62.96;101801.16;5065904;28;20166;-73
2024/02/04 02:44:19;;;;;;;7.53;1.63;;;;;;;2.50;61.99;101804.75;5059558;28;20617;-73
2024/02/04 02:46:48;;;;;;;10.52;1.13;;;;;;;2.73;60.96;101799.78;5027491;28;20040;-73
2024/02/04 02:49:15;;;;;;;12.43;1.40;;;;;;;2.31;62.80;101790.84;5045518;28;20068;-72
2024/02/04 02:51:43;;;;;;;12.32;1.10;;;;;;;2.75;61.01;101790.31;5065305;28;20042;-73
2024/02/04 02:54:08;;;;;;;4.38;0.47;;;;;;;2.65;61.18;101798.84;5064876;28;20036;-72
2024/02/04 02:56:34;;;;;;;8.73;0.80;;;;;;;2.13;62.98;101798.38;5042060;28;20128;-73
2024/02/04 02:58:59;;;;;;;12.50;0.95;;;;;;;2.56;61.38;101811.69;5068082;28;20997;-73
2024/02/04 03:01:25;;;;;;;6.53;0.80;;;;;;;2.03;62.50;101814.63;5056087;28;20691;-72
2024/02/04 03:03:50;;;;;;;6.18;1.52;;;;;;;2.23;62.24;101807.09;5067205;28;20646;-70
2024/02/04 03:06:16;;;;;;;7.18;1.15;;;;;;;2.53;60.90;101798.75;5063754;28;20047;-72
2024/02/04 03:08:41;;;;;;;17.23;1.85;;;;;;;2.12;62.10;101801.81;5065712;28;20457;-72
2024/02/04 03:11:09;;;;;;;6.18;0.82;;;;;;;2.66;60.74;101791.97;5069167;28;20055;-70
2024/02/04 03:13:38;;;;;;;6.13;1.08;;;;;;;2.27;61.74;101789.06;5063266;28;20032;-71
2024/02/04 03:16:04;;;;;;;8.63;1.25;;;;;;;2.34;61.54;101802.88;5069802;28;20044;-72
2024/02/04 03:18:29;;;;;;;4.95;1.63;;;;;;;2.55;60.83;101799.63;5060559;28;20096;-71
2024/02/04 03:20:54;;;;;;;9.32;0.88;;;;;;;2.37;61.44;101800.31;5085286;28;20047;-67
2024/02/04 03:23:20;;;;;;;17.23;1.40;;;;;;;2.19;62.11;101806.19;5064113;28;20522;-68
2024/02/04 03:25:46;;;;;;;12.20;1.13;;;;;;;2.04;62.21;101806.91;5069913;28;20035;-69
2024/02/04 03:28:11;;;;;;;6.88;0.60;;;;;;;2.26;61.26;101807.09;5068188;28;20035;-67
2024/02/04 03:30:37;;;;;;;15.73;2.38;;;;;;;2.39;61.18;101803.78;5056451;28;20040;-68
2024/02/04 03:33:02;;;;;;;9.23;0.57;;;;;;;2.48;60.80;101800.41;5068799;28;20093;-69
2024/02/04 03:35:28;;;;;;;7.55;1.13;;;;;;;1.78;63.18;101803.19;5046114;28;20602;-70
2024/02/04 03:37:54;;;;;;;9.65;1.83;;;;;;;2.17;61.33;101807.00;5064652;28;20028;-74
2024/02/04 03:40:22;;;;;;;10.63;0.98;;;;;;;1.67;62.63;101787.56;5062317;28;20484;-73
2024/02/04 03:42:48;;;;;;;17.42;2.53;;;;;;;2.19;61.15;101793.28;5066553;28;20796;-75
2024/02/04 03:45:14;;;;;;;10.57;1.55;;;;;;;1.92;61.97;101794.72;5062375;28;20040;-74
2024/02/04 03:47:40;;;;;;;14.43;1.95;;;;;;;2.18;61.73;101796.72;5046733;28;20032;-72
2024/02/04 03:50:05;;;;;;;14.63;1.45;;;;;;;2.52;60.81;101797.03;5060695;28;20044;-71
2024/02/04 03:52:31;;;;;;;10.95;1.25;;;;;;;2.19;61.67;101780.38;5058912;28;20078;-71
2024/02/04 03:54:59;;;;;;;6.93;0.63;;;;;;;2.18;61.43;101775.22;5052153;28;20052;-72
2024/02/04 03:57:24;;;;;;;10.40;2.58;;;;;;;2.12;61.32;101768.28;5047339;28;20032;-70
2024/02/04 03:59:50;;;;;;;7.15;0.65;;;;;;;2.23;61.12;101771.81;5068501;28;20106;-72
2024/02/04 04:02:18;;;;;;;16.27;1.73;;;;;;;2.32;60.72;101776.22;5061280;28;20043;-72
2024/02/04 04:04:47;;;;;;;6.55;0.50;;;;;;;2.09;61.52;101788.91;5063273;28;22013;-72
2024/02/04 04:07:12;;;;;;;8.48;1.08;;;;;;;2.31;60.57;101796.00;5055366;28;20308;-74
2024/02/04 04:09:38;;;;;;;13.73;1.08;;;;;;;2.23;60.61;101801.91;5047954;28;20720;-69
2024/02/04 04:12:04;;;;;;;12.23;0.90;;;;;;;2.53;59.92;101801.31;5048933;28;20150;-66
2024/02/04 04:14:29;;;;;;;11.90;1.75;;;;;;;2.54;59.66;101798.75;5060330;28;20031;-67
2024/02/04 04:16:55;;;;;;;14.52;1.38;;;;;;;2.43;59.45;101792.66;5068038;28;20086;-66
2024/02/04 04:19:20;;;;;;;16.30;2.03;;;;;;;2.80;58.57;101802.38;5066864;28;20032;-67
2024/02/04 04:21:46;;;;;;;7.15;0.80;;;;;;;2.82;58.42;101792.94;5050424;28;21415;-71
2024/02/04 04:24:11;;;;;;;23.77;1.40;;;;;;;2.28;60.06;101790.78;5055980;28;20036;-71
2024/02/04 04:26:36;;;;;;;13.50;1.20;;;;;;;2.74;59.20;101783.44;5060640;28;20046;-72
2024/02/04 04:29:02;;;;;;;15.40;0.70;;;;;;;2.79;58.41;101777.44;5071135;28;20035;-71
2024/02/04 04:31:28;;;;;;;9.02;1.17;;;;;;;2.43;59.86;101773.72;5061073;28;20059;-71
2024/02/04 04:33:54;;;;;;;3.40;0.70;;;;;;;2.71;58.54;101769.63;5058223;28;20039;-71
2024/02/04 04:36:19;;;;;;;9.20;0.68;;;;;;;2.80;58.12;101776.56;5051807;28;20418;-70
2024/02/04 04:38:45;;;;;;;6.30;0.68;;;;;;;2.62;59.15;101773.00;5062108;28;20916;-71
2024/02/04 04:41:10;;;;;;;9.95;0.82;;;;;;;2.19;60.45;101775.22;5067853;28;20040;-71
2024/02/04 04:43:39;;;;;;;11.75;0.50;;;;;;;2.52;59.56;101773.78;5061830;28;20466;-70
2024/02/04 04:46:04;;;;;;;7.15;1.05;;;;;;;2.26;59.71;101774.41;5057735;28;20104;-70
2024/02/04 04:48:30;;;;;;;11.35;0.63;;;;;;;2.41;60.27;101770.25;5046561;28;20060;-70
2024/02/04 04:50:55;;;;;;;11.75;0.50;;;;;;;2.54;59.54;101769.50;5067100;28;20174;-70
2024/02/04 04:53:20;;;;;;;17.90;0.73;;;;;;;2.37;60.32;101763.34;5063163;28;20537;-70
2024/02/04 04:55:46;;;;;;;5.88;1.40;;;;;;;2.63;59.53;101748.94;5059862;28;21357;-69
2024/02/04 04:58:11;;;;;;;14.55;1.10;;;;;;;2.45;59.70;101764.28;5055589;28;20414;-68
2024/02/04 05:00:37;;;;;;;5.95;1.33;;;;;;;2.75;59.05;101767.06;5051083;28;20406;-69
2024/02/04 05:03:03;;;;;;;12.02;0.55;;;;;;;2.45;60.15;101762.56;5066692;28;20625;-69
2024/02/04 05:05:28;;;;;;;11.55;1.70;;;;;;;2.24;61.09;101740.03;5059293;28;20967;-70
2024/02/04 05:07:53;;;;;;;5.13;0.63;;;;;;;2.77;59.21;101747.28;5060437;28;20036;-69
2024/02/04 05:10:19;;;;;;;8.60;1.02;;;;;;;2.54;59.62;101735.97;5065593;28;20040;-70
2024/02/04 05:12:44;;;;;;;12.40;0.73;;;;;;;2.79;59.36;101731.81;5061396;28;20569;-69
2024/02/04 05:15:10;;;;;;;9.80;0.85;;;;;;;2.43;60.47;101727.28;5061647;28;20149;-69
2024/02/04 05:17:35;;;;;;;9.95;0.90;;;;;;;2.82;59.77;101730.97;5061276;28;20086;-69
2024/02/04 05:20:03;;;;;;;14.00;1.58;;;;;;;2.88;59.12;101724.13;5064386;28;20042;-69
2024/02/04 05:22:28;;;;;;;8.35;0.85;;;;;;;2.87;58.93;101718.97;5066405;28;20035;-69
2024/02/04 05:24:54;;;;;;;11.15;0.80;;;;;;;2.67;59.26;101714.53;5042920;28;20039;-69
2024/02/04 05:27:19;;;;;;;11.98;1.17;;;;;;;2.60;59.23;101724.81;5066835;28;20042;-69
2024/02/04 05:29:45;;;;;;;18.88;1.63;;;;;;;2.56;59.75;101711.03;5057167;28;20040;-69
2024/02/04 05:32:11;;;;;;;9.80;0.77;;;;;;;2.83;58.83;101712.91;5083252;28;20034;-69
2024/02/04 05:34:37;;;;;;;7.95;0.93;;;;;;;2.59;59.79;101707.59;5052992;28;20411;-69
2024/02/04 05:37:03;;;;;;;10.35;0.73;;;;;;;2.79;59.52;101699.97;5066067;28;20028;-70
2024/02/04 05:39:28;;;;;;;10.85;1.48;;;;;;;2.79;59.40;101710.31;5058727;28;21533;-69
2024/02/04 05:41:54;;;;;;;13.07;1.17;;;;;;;2.15;60.96;101708.97;5058727;28;20028;-69
2024/02/04 05:44:19;;;;;;;18.02;1.67;;;;;;;2.80;59.58;101706.84;5065250;28;20043;-69
2024/02/04 05:46:45;;;;;;;15.65;1.60;;;;;;;2.43;60.41;101714.38;5058057;28;21110;-71
2024/02/04 05:49:11;;;;;;;15.13;0.88;;;;;;;2.22;61.06;101707.31;5065726;28;20422;-71
2024/02/04 05:51:40;;;;;;;12.57;1.10;;;;;;;2.20;61.44;101701.28;5056794;28;20039;-71
2024/02/04 05:54:06;;;;;;;12.20;2.08;;;;;;;2.06;61.54;101711.47;5055475;28;20039;-69
2024/02/04 05:56:32;;;;;;;11.25;1.13;;;;;;;2.30;61.18;101687.63;5061458;28;20059;-69
2024/02/04 05:58:57;;;;;;;15.85;1.75;;;;;;;2.74;59.79;101693.06;5047147;28;20032;-68
2024/02/04 06:01:24;;;;;;;7.75;1.23;;;;;;;2.12;61.70;101686.63;5063964;28;20036;-69
2024/02/04 06:03:49;;;;;;;15.30;1.63;;;;;;;2.49;60.50;101696.38;5058606;28;20077;-69
2024/02/04 06:06:15;;;;;;;8.65;1.50;;;;;;;2.88;59.50;101695.72;5066083;28;20090;-73
2024/02/04 06:08:42;;;;;;;14.98;1.60;;;;;;;2.80;59.47;101696.53;5059357;28;20028;-73
2024/02/04 06:11:12;;;;;;;16.98;0.85;;;;;;;2.85;59.58;101694.84;5066351;28;20044;-73
2024/02/04 06:13:42;;;;;;;12.30;1.45;;;;;;;2.54;60.35;101679.19;5059008;28;20042;-72
2024/02/04 06:16:08;;;;;;;7.57;0.98;;;;;;;2.77;59.81;101671.56;5068274;28;20453;-72
2024/02/04 06:18:37;;;;;;;14.77;1.50;;;;;;;2.47;60.55;101680.88;5053753;28;20055;-72
2024/02/04 06:21:04;;;;;;;17.52;2.10;;;;;;;2.74;59.51;101675.00;5048945;28;20137;-73
2024/02/04 06:23:29;;;;;;;18.10;1.38;;;;;;;2.37;61.09;101673.03;5057026;28;20115;-74
2024/02/04 06:25:55;;;;;;;4.95;0.55;;;;;;;2.82;59.77;101692.25;5061268;28;20120;-74
2024/02/04 06:28:20;;;;;;;12.50;1.58;;;;;;;2.46;60.95;101688.59;5065223;28;20115;-74
2024/02/04 06:30:46;;;;;;;11.32;2.40;;;;;;;2.66;60.47;101679.25;5059759;28;20039;-75
2024/02/04 06:33:11;;;;;;;11.88;1.60;;;;;;;2.76;59.95;101675.88;5050016;28;20028;-75
2024/02/04 06:35:37;;;;;;;11.15;0.80;;;;;;;2.50;60.90;101682.59;5051031;28;20545;-72
2024/02/04 06:38:02;;;;;;;15.68;1.50;;;;;;;2.67;59.97;101683.56;5063145;28;20023;-72
2024/02/04 06:40:28;;;;;;;13.38;1.33;;;;;;;2.37;61.30;101670.47;5063370;28;20040;-72
2024/02/04 06:42:53;;;;;;;13.35;1.35;;;;;;;2.70;60.70;101662.06;5058202;28;21218;-72
2024/02/04 06:45:19;;;;;;;14.05;1.67;;;;;;;2.75;60.20;101657.78;5043770;28;20035;-73
2024/02/04 06:47:45;;;;;;;17.35;1.80;;;;;;;2.54;60.87;101661.13;5056829;28;20032;-70
2024/02/04 06:50:14;;;;;;;10.93;1.50;;;;;;;2.57;61.14;101668.88;5061634;28;20036;-70
2024/02/04 06:52:40;;;;;;;13.10;0.65;;;;;;;1.91;62.64;101660.66;5060254;28;20059;-70
2024/02/04 06:55:06;;;;;;;17.83;2.45;;;;;;;2.81;60.52;101673.31;5062359;28;20094;-68
2024/02/04 06:57:32;;;;;;;17.02;1.42;;;;;;;2.45;61.70;101658.50;5063664;28;20044;-70
2024/02/04 06:59:57;;;;;;;18.95;2.03;;;;;;;2.54;61.10;101658.53;5057998;28;20036;-71
2024/02/04 07:02:23;;;;;;;15.88;2.50;;;;;;;2.74;60.69;101648.31;5062866;28;20039;-70
2024/02/04 07:04:49;;;;;;;14.15;1.92;;;;;;;2.72;60.71;101647.44;5055792;28;20174;-73
2024/02/04 07:07:15;;;;;;;18.48;1.15;;;;;;;2.87;60.50;101651.84;5064478;28;20573;-70
2024/02/04 07:09:40;;;;;;;11.27;1.58;;;;;;;2.60;60.92;101648.25;5035178;28;20483;-71
2024/02/04 07:12:06;;;;;;;12.60;1.45;;;;;;;2.93;60.29;101632.03;5058250;28;20024;-71
2024/02/04 07:14:32;;;;;;;14.30;1.00;;;;;;;3.12;60.03;101653.66;5064475;28;20040;-71
2024/02/04 07:16:57;;;;;;;12.65;1.25;;;;;;;2.60;60.82;101632.78;5054346;28;21620;-68
2024/02/04 07:19:23;;;;;;;11.90;0.95;;;;;;;2.55;61.28;101624.13;5064789;28;20043;-68
2024/02/04 07:21:49;;;;;;;7.63;1.55;;;;;;;2.92;60.60;101620.00;5030946;28;20162;-70
2024/02/04 07:24:14;;;;;;;16.55;1.52;;;;;;;2.73;60.67;101623.34;5059158;28;20039;-70
2024/02/04 07:26:40;;;;;;;18.77;1.13;;;;;;;3.02;60.02;101620.88;5054193;28;20040;-67
2024/02/04 07:29:05;;;;;;;12.35;1.30;;;;;;;2.78;60.82;101626.84;5057246;28;20184;-65
2024/02/04 07:31:31;;;;;;;16.60;2.45;;;;;;;3.12;59.70;101627.81;5061005;28;20459;-67
2024/02/04 07:33:57;;;;;;;8.65;1.00;;;;;;;2.66;61.06;101614.72;5035153;28;21706;-67
2024/02/04 07:36:22;;;;;;;10.02;1.27;;;;;;;2.71;60.87;101620.78;5058700;28;20040;-67
2024/02/04 07:38:48;;;;;;;8.73;1.30;;;;;;;2.61;61.16;101623.31;5055455;28;20506;-71
2024/02/04 07:41:15;;;;;;;8.10;2.13;;;;;;;2.31;61.77;101623.13;5063566;28;20040;-72
2024/02/04 07:43:41;;;;;;;16.98;1.23;;;;;;;2.97;60.19;101623.44;5054647;28;20020;-72
2024/02/04 07:46:08;;;;;;;12.63;1.35;;;;;;;2.60;60.40;101619.88;5060705;28;20044;-73
2024/02/04 07:48:34;;;;;;;6.63;1.08;;;;;;;2.92;59.65;101614.84;5059597;28;20097;-69
2024/02/04 07:51:00;;;;;;;7.32;1.08;;;;;;;3.03;59.14;101638.13;5041577;28;21245;-69
2024/02/04 07:53:26;;;;;;;15.73;2.03;;;;;;;2.84;59.42;101644.91;5063027;28;20394;-71
2024/02/04 07:55:51;;;;;;;13.13;2.60;;;;;;;2.90;59.42;101654.44;5061216;28;20062;-68
2024/02/04 07:58:17;;;;;;;8.90;2.42;;;;;;;3.18;58.82;101648.50;5064766;28;20081;-70
2024/02/04 08:00:43;;;;;;;15.98;1.85;;;;;;;3.15;58.76;101648.47;5058663;28;20910;-68
2024/02/04 08:03:09;;;;;;;14.32;2.35;;;;;;;3.24;58.68;101646.78;5063391;28;21407;-67
2024/02/04 08:05:37;;;;;;;12.10;1.83;;;;;;;3.29;57.88;101652.88;5063303;28;20051;-71
2024/02/04 08:08:03;;;;;;;13.95;2.28;;;;;;;3.11;58.68;101651.94;5059870;28;20410;-70
2024/02/04 08:10:29;;;;;;;8.57;1.35;;;;;;;2.96;59.30;101646.72;5062545;28;20048;-69
2024/02/04 08:12:54;;;;;;;17.20;1.77;;;;;;;3.12;58.57;101638.16;5059501;28;20043;-71
2024/02/04 08:15:21;;;;;;;10.98;1.15;;;;;;;3.04;58.60;101633.81;5060409;28;20036;-71
2024/02/04 08:17:46;;;;;;;26.25;3.33;;;;;;;2.92;58.50;101625.16;5060483;28;20300;-70
2024/02/04 08:20:12;;;;;;;14.25;1.50;;;;;;;3.73;56.61;101636.59;5060491;28;20093;-68
2024/02/04 08:22:38;;;;;;;19.02;1.45;;;;;;;3.23;57.75;101634.75;5062361;28;20035;-69
2024/02/04 08:25:07;;;;;;;13.80;2.35;;;;;;;3.63;56.12;101633.13;5056456;28;20406;-69
2024/02/04 08:27:32;;;;;;;10.32;1.38;;;;;;;3.06;57.76;101634.69;5062225;28;20040;-70
2024/02/04 08:29:58;;;;;;;13.00;1.63;;;;;;;3.57;56.12;101628.81;5054957;28;20040;-69
2024/02/04 08:32:23;;;;;;;13.30;0.85;;;;;;;3.99;55.41;101642.63;5062342;28;20035;-67
2024/02/04 08:34:52;;;;;;;22.48;3.05;;;;;;;4.00;55.24;101636.56;5058960;28;20032;-67
2024/02/04 08:37:17;;;;;;;9.75;0.95;;;;;;;3.93;55.44;101639.19;5064605;28;20040;-71
2024/02/04 08:39:43;;;;;;;17.27;2.42;;;;;;;3.89;55.16;101632.28;5061766;28;20040;-67
2024/02/04 08:42:09;;;;;;;21.83;1.70;;;;;;;3.68;55.81;101643.47;5061128;28;20027;-67
2024/02/04 08:44:34;;;;;;;9.18;1.23;;;;;;;3.77;55.65;101627.97;5063175;28;20052;-70
2024/02/04 08:47:00;;;;;;;11.30;1.08;;;;;;;3.36;56.59;101631.38;5053010;28;20549;-66
2024/02/04 08:49:26;;;;;;;16.15;1.13;;;;;;;3.74;55.94;101628.84;5062923;28;20550;-71
2024/02/04 08:51:51;;;;;;;6.25;0.73;;;;;;;3.65;55.43;101638.28;5058424;28;20032;-68
2024/02/04 08:54:17;;;;;;;14.05;1.38;;;;;;;3.70;56.15;101636.59;5061439;28;20491;-66
2024/02/04 08:56:43;;;;;;;12.00;1.27;;;;;;;3.51;56.57;101636.53;5063507;28;20028;-69
2024/02/04 08:59:08;;;;;;;16.15;1.33;;;;;;;3.42;56.88;101641.69;5058656;28;20039;-69
2024/02/04 09:01:34;;;;;;;11.70;2.03;;;;;;;3.47;56.99;101646.88;5061698;28;20624;-69
2024/02/04 09:04:00;;;;;;;9.95;0.90;;;;;;;3.96;55.31;101637.47;5055760;28;20044;-65
2024/02/04 09:06:25;;;;;;;14.48;1.48;;;;;;;3.67;56.38;101644.31;5061911;28;20028;-68
2024/02/04 09:08:51;;;;;;;12.45;1.25;;;;;;;3.98;55.50;101643.50;5059348;28;20035;-68
2024/02/04 09:11:18;;;;;;;12.13;1.15;;;;;;;4.14;55.58;101640.88;5062193;28;20081;-68
2024/02/04 09:13:45;;;;;;;6.20;0.75;;;;;;;4.15;55.23;101650.38;5062279;28;20111;-68
2024/02/04 09:16:10;;;;;;;14.32;1.30;;;;;;;3.53;56.74;101633.97;5059655;28;20040;-68
2024/02/04 09:18:37;;;;;;;10.05;0.85;;;;;;;3.49;57.32;101643.47;5061471;28;20717;-68
2024/02/04 09:21:02;;;;;;;7.65;1.05;;;;;;;4.25;55.73;101627.94;5056729;28;20044;-66
2024/02/04 09:23:28;;;;;;;5.93;1.02;;;;;;;3.83;56.90;101642.59;5060330;28;20040;-68
2024/02/04 09:25:54;;;;;;;14.55;1.58;;;;;;;4.02;55.89;101616.75;5055908;28;20558;-70
2024/02/04 09:28:20;;;;;;;14.45;1.58;;;;;;;4.46;55.13;101634.81;5061256;28;20023;-68
2024/02/04 09:30:46;;;;;;;15.63;1.73;;;;;;;4.16;55.43;101621.03;5060926;28;20104;-67
2024/02/04 09:33:14;;;;;;;10.10;1.25;;;;;;;4.20;55.81;101625.34;5063685;28;20123;-68
2024/02/04 09:35:40;;;;;;;12.25;1.30;;;;;;;4.28;55.32;101627.94;5062558;28;20059;-68
2024/02/04 09:38:06;;;;;;;14.50;0.95;;;;;;;4.27;55.49;101618.44;5059029;28;23160;-67
2024/02/04 09:40:32;;;;;;;13.88;1.15;;;;;;;4.10;55.83;101626.25;5061791;28;20059;-68
2024/02/04 09:42:58;;;;;;;9.23;1.00;;;;;;;4.32;55.46;101621.88;5058848;28;20559;-68
2024/02/04 09:45:24;;;;;;;14.95;1.58;;;;;;;4.25;55.47;101621.03;5056550;28;20052;-69
2024/02/04 09:47:52;;;;;;;9.93;1.00;;;;;;;4.41;55.06;101620.16;5059874;28;20051;-69
2024/02/04 09:50:20;;;;;;;8.43;1.63;;;;;;;3.57;56.48;101584.88;5056873;28;20490;-68
2024/02/04 09:52:52;;;;;;;13.18;1.30;;;;;;;4.16;55.55;101615.88;5063948;28;20461;-68
2024/02/04 09:55:23;;;;;;;12.18;1.35;;;;;;;4.51;54.58;101612.34;5057107;28;20059;-68
2024/02/04 09:57:49;;;;;;;16.52;1.00;;;;;;;3.99;56.16;101608.16;5062017;28;20044;-68
2024/02/04 10:00:20;;;;;;;13.95;1.67;;;;;;;4.24;55.61;101629.66;5061347;28;20047;-69
2024/02/04 10:02:47;;;;;;;6.07;0.85;;;;;;;4.59;54.88;101623.56;5063336;28;20028;-69
2024/02/04 10:05:13;;;;;;;5.43;1.17;;;;;;;4.58;54.60;101616.66;5065926;28;20043;-68
2024/02/04 10:07:38;;;;;;;15.13;1.48;;;;;;;4.34;55.54;101621.03;5041527;28;20546;-69
2024/02/04 10:10:06;;;;;;;11.85;1.38;;;;;;;4.66;54.41;101617.50;5051766;28;20402;-68
2024/02/04 10:12:31;;;;;;;10.63;1.10;;;;;;;4.18;55.52;101624.50;5055487;28;20878;-69
2024/02/04 10:14:59;;;;;;;9.65;1.25;;;;;;;4.75;54.61;101617.44;5054228;28;20104;-69
2024/02/04 10:17:25;;;;;;;7.95;1.10;;;;;;;5.37;53.02;101624.94;5041961;28;20032;-69
2024/02/04 10:19:54;;;;;;;10.93;0.98;;;;;;;4.98;53.67;101614.78;5048644;28;20055;-70
2024/02/04 10:22:22;;;;;;;15.98;1.42;;;;;;;5.08;53.36;101615.63;5057234;28;20506;-69
2024/02/04 10:24:48;;;;;;;23.90;1.73;;;;;;;5.37;52.65;101622.34;5063835;28;20154;-68
2024/02/04 10:27:15;;;;;;;13.85;2.30;;;;;;;5.21;53.31;101614.69;5022184;28;20670;-69
2024/02/04 10:29:41;;;;;;;10.23;1.30;;;;;;;5.18;53.20;101611.25;5058036;28;20036;-69
2024/02/04 10:32:08;;;;;;;10.43;1.20;;;;;;;5.32;52.55;101603.38;5053443;28;20554;-68
2024/02/04 10:34:37;;;;;;;16.00;1.52;;;;;;;5.72;52.06;101618.66;5043627;28;20023;-69
2024/02/04 10:37:02;;;;;;;12.70;1.20;;;;;;;5.74;51.84;101616.91;5057262;28;20040;-69
2024/02/04 10:39:29;;;;;;;17.90;1.58;;;;;;;6.24;51.07;101619.06;5058980;28;20044;-69
2024/02/04 10:41:58;;;;;;;10.57;1.02;;;;;;;5.86;51.89;101619.41;5056624;28;20101;-68
2024/02/04 10:44:25;;;;;;;11.93;2.20;;;;;;;6.11;50.87;101621.81;5040119;28;20119;-69
2024/02/04 10:46:53;;;;;;;12.18;1.17;;;;;;;5.76;52.33;101635.91;5060286;28;20055;-69
2024/02/04 10:49:19;;;;;;;21.85;2.45;;;;;;;5.74;51.84;101642.84;5058389;28;20035;-69
2024/02/04 10:51:46;;;;;;;13.88;1.92;;;;;;;5.66;51.52;101637.72;5061602;28;20187;-69
2024/02/04 10:54:16;;;;;;;19.95;2.45;;;;;;;5.81;51.49;101619.44;5054148;28;20032;-69
2024/02/04 10:56:44;;;;;;;9.10;1.15;;;;;;;5.74;51.87;101619.50;5060903;28;20044;-69
2024/02/04 10:59:11;;;;;;;14.82;2.38;;;;;;;5.31;52.85;101633.63;5055233;28;20043;-68
2024/02/04 11:01:44;;;;;;;9.98;2.30;;;;;;;5.46;52.59;101632.69;5056540;28;20443;-68
2024/02/04 11:04:13;;;;;;;25.02;2.08;;;;;;;5.47;52.52;101639.56;5053235;28;20716;-68
2024/02/04 11:06:43;;;;;;;10.90;2.08;;;;;;;5.76;51.98;101641.09;5061506;28;20510;-69
2024/02/04 11:09:10;;;;;;;11.23;1.52;;;;;;;5.44;52.30;101644.78;5055117;28;20031;-69
2024/02/04 11:11:37;;;;;;;15.10;1.70;;;;;;;4.94;53.22;101632.94;5064663;28;20032;-69
2024/02/04 11:14:09;;;;;;;12.35;1.35;;;;;;;5.17;53.32;101633.72;5040079;28;20921;-69
2024/02/04 11:16:44;;;;;;;4.70;0.55;;;;;;;5.42;52.81;101642.19;5061353;28;20037;-69
2024/02/04 11:19:25;;;;;;;14.93;1.70;;;;;;;5.28;52.29;101635.38;5055979;28;20071;-69
2024/02/04 11:22:12;;;;;;;14.73;1.55;;;;;;;4.69;54.31;101614.03;5063506;28;20131;-69
2024/02/04 11:25:08;;;;;;;12.95;1.90;;;;;;;5.60;52.22;101620.47;5059976;28;20044;-67
2024/02/04 11:27:34;;;;;;;5.85;1.02;;;;;;;5.80;51.28;101615.13;5057542;28;20033;-68